Marshall, North Dakota
Current Conditions -  °F | °C
As of 12:55 PM on Saturday 25 Oct 2014 (Local Time) from KD57 Reporting Station
Clear Clear  
Wind Chill: 61°   Ceiling: Unl
Heat Index: 61°   Visibility: 10mi
Dew Point: 28°   Wind: 8mph
Humidity: 29%   Direction: 160°SSE
Pressure: 30.09"   Gusts: NA
Location:  47.14°N, 102.33°W
Report Text: KD57 251855Z AUTO 16007KT 10SM CLR 16/M02 A3009 RMK AO2 TSNO
Loading
Personal Weather Stations






























Interactive Weather Map
Tropical Storm Tracking
New forecast layout! Learn more

10-Day Weather Forecast

Advertisements
Track Severe Weather on mobile